createdAt,value
2018-12-25T00:00:48.843Z,1.75
2018-12-25T00:03:54.478Z,2.85
2018-12-25T00:07:00.128Z,2.22
2018-12-25T00:10:06.179Z,2.00
2018-12-25T00:13:11.875Z,1.77
2018-12-25T00:16:17.595Z,2.00
2018-12-25T00:19:23.468Z,1.85
2018-12-25T00:22:30.036Z,9.10
2018-12-25T00:25:35.711Z,16.62
2018-12-25T00:28:42.458Z,8.78
2018-12-25T00:31:48.277Z,5.17
2018-12-25T00:34:53.995Z,17.17
2018-12-25T00:38:00.698Z,14.45
2018-12-25T00:41:06.438Z,3.55
2018-12-25T00:44:11.981Z,7.47
2018-12-25T00:47:18.014Z,5.83
2018-12-25T00:50:23.867Z,4.45
2018-12-25T00:53:29.551Z,8.28
2018-12-25T00:56:35.178Z,6.10
2018-12-25T00:59:40.833Z,4.15
2018-12-25T01:02:46.507Z,6.35
2018-12-25T01:05:52.910Z,3.55
2018-12-25T01:08:58.527Z,3.52
2018-12-25T01:12:04.178Z,3.02
2018-12-25T01:15:09.843Z,5.37
2018-12-25T01:18:15.471Z,3.45
2018-12-25T01:21:21.147Z,1.67
2018-12-25T01:24:26.788Z,2.35
2018-12-25T01:27:32.424Z,2.83
2018-12-25T01:30:38.106Z,2.70
2018-12-25T01:33:43.779Z,4.30
2018-12-25T01:36:49.516Z,5.10
2018-12-25T01:39:55.162Z,4.37
2018-12-25T01:43:00.792Z,5.08
2018-12-25T01:46:06.567Z,1.65
2018-12-25T01:49:12.221Z,2.25
2018-12-25T01:52:17.871Z,1.72
2018-12-25T01:55:23.526Z,1.52
2018-12-25T01:58:29.183Z,2.05
2018-12-25T02:01:34.923Z,2.37
2018-12-25T02:04:40.588Z,3.12
2018-12-25T02:07:46.235Z,1.47
2018-12-25T02:10:51.894Z,3.10
2018-12-25T02:13:57.523Z,1.12
2018-12-25T02:17:03.205Z,3.02
2018-12-25T02:20:08.882Z,3.20
2018-12-25T02:23:14.504Z,3.40
2018-12-25T02:26:20.238Z,1.85
2018-12-25T02:29:25.908Z,0.95
2018-12-25T02:32:32.618Z,1.82
2018-12-25T02:35:38.230Z,2.83
2018-12-25T02:38:44.143Z,3.30
2018-12-25T02:41:50.231Z,4.00
2018-12-25T02:44:56.020Z,1.00
2018-12-25T02:48:01.668Z,2.37
2018-12-25T02:51:08.378Z,1.52
2018-12-25T02:54:14.093Z,3.17
2018-12-25T02:57:19.987Z,2.22
2018-12-25T03:00:25.614Z,2.95
2018-12-25T03:03:31.389Z,2.98
2018-12-25T03:06:38.722Z,2.20
2018-12-25T03:09:45.454Z,2.02
2018-12-25T03:12:51.089Z,3.72
2018-12-25T03:15:56.648Z,1.72
2018-12-25T03:19:02.265Z,4.60
2018-12-25T03:22:07.952Z,2.25
2018-12-25T03:25:13.596Z,2.20
2018-12-25T03:28:19.256Z,2.58
2018-12-25T03:31:24.908Z,2.90
2018-12-25T03:34:30.530Z,1.75
2018-12-25T03:37:36.209Z,1.20
2018-12-25T03:40:42.346Z,1.80
2018-12-25T03:43:48.027Z,3.60
2018-12-25T03:46:53.681Z,3.08
2018-12-25T03:49:59.313Z,2.50
2018-12-25T03:53:05.089Z,2.47
2018-12-25T03:56:10.736Z,2.60
2018-12-25T03:59:16.391Z,3.45
2018-12-25T04:02:22.010Z,2.55
2018-12-25T04:05:27.673Z,1.47
2018-12-25T04:08:33.122Z,1.63
2018-12-25T04:11:38.567Z,1.87
2018-12-25T04:14:44.020Z,2.85
2018-12-25T04:17:49.476Z,2.17
2018-12-25T04:20:54.926Z,2.65
2018-12-25T04:24:00.373Z,3.30
2018-12-25T04:27:05.882Z,1.45
2018-12-25T04:30:11.339Z,2.65
2018-12-25T04:33:16.843Z,2.65
2018-12-25T04:36:25.439Z,2.75
2018-12-25T04:39:30.884Z,3.17
2018-12-25T04:42:36.343Z,4.12
2018-12-25T04:45:41.798Z,3.60
2018-12-25T04:48:47.260Z,3.55
2018-12-25T04:51:52.706Z,2.87
2018-12-25T04:54:58.162Z,2.17
2018-12-25T04:58:03.610Z,3.15
2018-12-25T05:01:09.090Z,1.90
2018-12-25T05:04:14.590Z,2.20
2018-12-25T05:07:20.042Z,2.47
2018-12-25T05:10:25.651Z,3.05
2018-12-25T05:13:31.170Z,2.22
2018-12-25T05:16:36.530Z,3.20
2018-12-25T05:19:41.979Z,2.43
2018-12-25T05:22:47.438Z,2.87
2018-12-25T05:25:52.886Z,2.25
2018-12-25T05:28:58.334Z,3.42
2018-12-25T05:32:03.786Z,2.90
2018-12-25T05:35:09.234Z,2.17
2018-12-25T05:38:14.698Z,2.52
2018-12-25T05:41:20.150Z,2.00
2018-12-25T05:44:25.606Z,3.12
2018-12-25T05:47:31.051Z,2.95
2018-12-25T05:50:36.502Z,1.87
2018-12-25T05:53:41.963Z,2.98
2018-12-25T05:56:47.411Z,2.87
2018-12-25T05:59:52.887Z,2.20
2018-12-25T06:02:58.335Z,2.55
2018-12-25T06:06:03.850Z,2.60
2018-12-25T06:09:09.306Z,2.70
2018-12-25T06:12:14.830Z,1.10
2018-12-25T06:15:20.274Z,2.27
2018-12-25T06:18:25.762Z,1.00
2018-12-25T06:21:31.201Z,2.15
2018-12-25T06:24:36.646Z,1.57
2018-12-25T06:27:42.140Z,0.98
2018-12-25T06:30:47.595Z,2.55
2018-12-25T06:33:53.471Z,3.67
2018-12-25T06:36:58.911Z,2.02
2018-12-25T06:40:04.766Z,2.80
2018-12-25T06:43:10.211Z,3.58
2018-12-25T06:46:15.699Z,0.75
2018-12-25T06:49:21.254Z,1.90
2018-12-25T06:52:26.735Z,1.05
2018-12-25T06:55:32.181Z,3.67
2018-12-25T06:58:37.651Z,2.80
2018-12-25T07:01:43.210Z,1.87
2018-12-25T07:04:48.739Z,1.55
2018-12-25T07:07:54.223Z,4.10
2018-12-25T07:10:59.666Z,4.15
2018-12-25T07:14:05.148Z,1.72
2018-12-25T07:17:10.686Z,1.40
2018-12-25T07:20:16.158Z,2.30
2018-12-25T07:23:21.686Z,2.80
2018-12-25T07:26:27.199Z,25.05
2018-12-25T07:29:32.678Z,8.28
2018-12-25T07:32:38.203Z,22.80
2018-12-25T07:35:43.834Z,12.47
2018-12-25T07:38:49.510Z,13.03
2018-12-25T07:41:56.866Z,11.22
2018-12-25T07:45:03.558Z,8.55
2018-12-25T07:48:10.151Z,20.57
2018-12-25T07:51:20.637Z,21.33
2018-12-25T07:54:23.200Z,10.82
2018-12-25T07:57:28.756Z,15.40
2018-12-25T08:00:34.494Z,7.62
2018-12-25T08:03:40.154Z,5.92
2018-12-25T08:06:45.812Z,8.58
2018-12-25T08:09:51.507Z,7.17
2018-12-25T08:12:57.123Z,5.65
2018-12-25T08:16:03.774Z,7.87
2018-12-25T08:19:09.551Z,7.20
2018-12-25T08:22:15.206Z,4.85
2018-12-25T08:25:20.855Z,6.45
2018-12-25T08:28:26.508Z,5.00
2018-12-25T08:31:32.240Z,7.45
2018-12-25T08:34:37.931Z,6.78
2018-12-25T08:37:45.377Z,6.80
2018-12-25T08:40:51.051Z,6.12
2018-12-25T08:43:56.719Z,8.60
2018-12-25T08:47:02.634Z,8.85
2018-12-25T08:50:09.838Z,4.35
2018-12-25T08:53:16.536Z,4.03
2018-12-25T08:56:22.198Z,4.40
2018-12-25T08:59:30.694Z,5.28
2018-12-25T09:02:36.366Z,2.55
2018-12-25T09:05:42.254Z,3.52
2018-12-25T09:08:47.876Z,2.90
2018-12-25T09:11:53.573Z,2.55
2018-12-25T09:14:59.151Z,2.80
2018-12-25T09:18:04.846Z,4.47
2018-12-25T09:21:10.587Z,2.67
2018-12-25T09:24:16.246Z,2.30
2018-12-25T09:27:21.951Z,2.47
2018-12-25T09:30:27.627Z,4.15
2018-12-25T09:33:33.307Z,3.25
2018-12-25T09:36:38.955Z,2.15
2018-12-25T09:39:44.615Z,1.75
2018-12-25T09:42:52.225Z,2.62
2018-12-25T09:45:58.863Z,2.60
2018-12-25T09:49:04.546Z,1.65
2018-12-25T09:52:10.190Z,2.12
2018-12-25T09:55:15.874Z,3.20
2018-12-25T09:58:21.471Z,3.20
2018-12-25T10:01:27.238Z,3.35
2018-12-25T10:04:32.954Z,3.60
2018-12-25T10:07:38.406Z,1.27
2018-12-25T10:10:44.039Z,2.33
2018-12-25T10:13:50.677Z,1.45
2018-12-25T10:16:56.383Z,2.55
2018-12-25T10:20:02.002Z,2.25
2018-12-25T10:23:09.360Z,1.25
2018-12-25T10:26:15.051Z,1.30
2018-12-25T10:29:20.679Z,1.90
2018-12-25T10:32:26.504Z,1.22
2018-12-25T10:35:32.210Z,1.82
2018-12-25T10:38:37.869Z,0.60
2018-12-25T10:41:43.508Z,1.35
2018-12-25T10:44:49.203Z,1.30
2018-12-25T10:47:56.533Z,1.47
2018-12-25T10:51:03.327Z,0.55
2018-12-25T10:54:08.983Z,1.30
2018-12-25T10:57:15.555Z,2.22
2018-12-25T11:00:21.630Z,0.90
2018-12-25T11:03:27.290Z,2.05
2018-12-25T11:06:32.998Z,2.77
2018-12-25T11:09:38.788Z,1.00
2018-12-25T11:12:44.422Z,1.98
2018-12-25T11:15:50.190Z,1.27
2018-12-25T11:18:55.854Z,1.60
2018-12-25T11:22:01.613Z,0.42
2018-12-25T11:25:07.363Z,2.17
2018-12-25T11:28:13.245Z,2.55
2018-12-25T11:31:18.861Z,0.90
2018-12-25T11:34:24.503Z,1.27
2018-12-25T11:37:30.186Z,0.62
2018-12-25T11:40:35.831Z,1.20
2018-12-25T11:43:41.487Z,0.57
2018-12-25T11:46:47.115Z,0.60
2018-12-25T11:49:52.822Z,2.83
2018-12-25T11:52:58.442Z,0.80
2018-12-25T11:56:04.098Z,0.62
2018-12-25T11:59:09.722Z,0.62
2018-12-25T12:02:17.121Z,1.07
2018-12-25T12:05:22.766Z,1.12
2018-12-25T12:08:28.447Z,0.53
2018-12-25T12:11:34.100Z,2.80
2018-12-25T12:14:39.740Z,0.53
2018-12-25T12:17:45.385Z,1.35
2018-12-25T12:20:51.064Z,1.92
2018-12-25T12:23:56.811Z,0.62
2018-12-25T12:27:02.474Z,1.15
2018-12-25T12:30:09.226Z,0.88
2018-12-25T12:33:15.589Z,0.30
2018-12-25T12:36:21.255Z,0.90
2018-12-25T12:39:26.922Z,0.80
2018-12-25T12:42:32.816Z,0.90
2018-12-25T12:45:39.435Z,0.40
2018-12-25T12:48:46.079Z,1.27
2018-12-25T12:51:52.703Z,1.42
2018-12-25T12:54:58.394Z,0.60
2018-12-25T12:58:03.988Z,2.27
2018-12-25T13:01:09.679Z,0.40
2018-12-25T13:04:15.319Z,1.37
2018-12-25T13:07:22.008Z,0.80
2018-12-25T13:10:27.640Z,0.70
2018-12-25T13:13:33.343Z,0.85
2018-12-25T13:16:38.984Z,1.12
2018-12-25T13:19:44.582Z,0.88
2018-12-25T13:22:54.290Z,0.65
2018-12-25T13:25:57.526Z,0.78
2018-12-25T13:29:03.224Z,1.55
2018-12-25T13:32:10.691Z,2.02
2018-12-25T13:35:16.425Z,1.02
2018-12-25T13:38:23.855Z,0.40
2018-12-25T13:41:29.480Z,0.65
2018-12-25T13:44:35.175Z,0.72
2018-12-25T13:47:40.806Z,0.93
2018-12-25T13:50:46.462Z,1.77
2018-12-25T13:53:52.151Z,0.45
2018-12-25T13:56:57.843Z,0.70
2018-12-25T14:00:03.506Z,1.40
2018-12-25T14:03:09.174Z,1.40
2018-12-25T14:06:14.837Z,1.32
2018-12-25T14:09:20.451Z,0.50
2018-12-25T14:12:26.112Z,0.98
2018-12-25T14:15:31.787Z,0.70
2018-12-25T14:18:37.442Z,0.90
2018-12-25T14:21:43.091Z,1.25
2018-12-25T14:24:48.729Z,1.00
2018-12-25T14:27:54.425Z,1.25
2018-12-25T14:31:00.046Z,0.60
2018-12-25T14:34:05.693Z,0.85
2018-12-25T14:37:12.362Z,0.70
2018-12-25T14:40:18.034Z,0.45
2018-12-25T14:43:23.686Z,0.70
2018-12-25T14:46:29.330Z,0.42
2018-12-25T14:49:34.974Z,1.25
2018-12-25T14:52:40.626Z,1.25
2018-12-25T14:55:47.327Z,1.47
2018-12-25T14:58:52.948Z,0.95
2018-12-25T15:01:58.830Z,0.55
2018-12-25T15:05:04.579Z,1.15
2018-12-25T15:08:11.234Z,0.70
2018-12-25T15:11:16.919Z,1.17
2018-12-25T15:14:23.676Z,1.22
2018-12-25T15:17:29.443Z,0.50
2018-12-25T15:20:35.165Z,0.45
2018-12-25T15:23:40.800Z,0.90
2018-12-25T15:26:47.513Z,0.78
2018-12-25T15:29:53.196Z,1.35
2018-12-25T15:32:58.831Z,0.45
2018-12-25T15:36:04.490Z,0.65
2018-12-25T15:39:13.544Z,0.40
2018-12-25T15:42:19.171Z,0.68
2018-12-25T15:45:24.958Z,0.60
2018-12-25T15:48:30.603Z,1.07
2018-12-25T15:51:36.290Z,1.00
2018-12-25T15:54:41.970Z,1.55
2018-12-25T15:57:47.723Z,0.93
2018-12-25T16:00:53.502Z,0.62
2018-12-25T16:03:59.191Z,0.60
2018-12-25T16:07:06.617Z,0.30
2018-12-25T16:10:13.255Z,1.10
2018-12-25T16:13:18.954Z,1.02
2018-12-25T16:16:24.766Z,0.93
2018-12-25T16:19:31.979Z,0.88
2018-12-25T16:22:37.683Z,0.65
2018-12-25T16:25:43.344Z,0.95
2018-12-25T16:28:48.955Z,1.07
2018-12-25T16:31:54.767Z,0.50
2018-12-25T16:35:00.390Z,1.05
2018-12-25T16:38:06.074Z,1.10
2018-12-25T16:41:11.667Z,0.80
2018-12-25T16:44:17.559Z,0.40
2018-12-25T16:47:23.183Z,1.30
2018-12-25T16:50:28.988Z,0.82
2018-12-25T16:53:37.682Z,1.40
2018-12-25T16:56:43.479Z,0.45
2018-12-25T16:59:49.199Z,1.07
2018-12-25T17:02:54.854Z,0.70
2018-12-25T17:06:00.503Z,1.45
2018-12-25T17:09:07.794Z,1.10
2018-12-25T17:12:13.419Z,1.32
2018-12-25T17:15:19.102Z,0.60
2018-12-25T17:18:24.746Z,0.80
2018-12-25T17:21:30.615Z,0.80
2018-12-25T17:24:36.239Z,2.62
2018-12-25T17:27:41.894Z,1.75
2018-12-25T17:30:47.543Z,1.65
2018-12-25T17:34:12.059Z,1.42
2018-12-25T17:37:17.818Z,1.27
2018-12-25T17:40:23.478Z,2.40
2018-12-25T17:43:29.127Z,0.60
2018-12-25T17:46:34.880Z,1.37
2018-12-25T17:49:40.607Z,0.85
2018-12-25T17:52:48.091Z,0.95
2018-12-25T17:55:53.888Z,1.00
2018-12-25T17:58:59.722Z,1.15
2018-12-25T18:02:05.391Z,1.20
2018-12-25T18:05:12.045Z,1.42
2018-12-25T18:08:18.799Z,1.17
2018-12-25T18:11:24.521Z,0.65
2018-12-25T18:14:30.150Z,1.47
2018-12-25T18:17:35.882Z,0.70
2018-12-25T18:20:41.599Z,0.70
2018-12-25T18:23:49.059Z,0.98
2018-12-25T18:26:54.867Z,1.15
2018-12-25T18:30:00.638Z,1.40
2018-12-25T18:33:08.063Z,0.80
2018-12-25T18:36:14.823Z,1.37
2018-12-25T18:39:20.475Z,0.70
2018-12-25T18:42:26.149Z,1.20
2018-12-25T18:45:31.802Z,0.70
2018-12-25T18:48:37.451Z,0.80
2018-12-25T18:51:43.986Z,1.52
2018-12-25T18:54:49.791Z,0.40
2018-12-25T18:57:55.414Z,1.70
2018-12-25T19:01:01.094Z,1.47
2018-12-25T19:04:06.650Z,1.07
2018-12-25T19:07:12.494Z,1.17
2018-12-25T19:10:18.248Z,1.47
2018-12-25T19:13:23.995Z,0.88
2018-12-25T19:16:30.283Z,0.90
2018-12-25T19:19:37.163Z,1.15
2018-12-25T19:22:42.911Z,1.95
2018-12-25T19:25:48.655Z,0.95
2018-12-25T19:28:54.422Z,0.75
2018-12-25T19:32:00.115Z,1.17
2018-12-25T19:35:05.827Z,0.90
2018-12-25T19:38:11.694Z,0.75
2018-12-25T19:41:17.438Z,1.15
2018-12-25T19:44:23.110Z,0.93
2018-12-25T19:47:28.734Z,0.90
2018-12-25T19:50:34.440Z,2.25
2018-12-25T19:53:40.538Z,0.50
2018-12-25T19:56:46.253Z,0.82
2018-12-25T19:59:52.878Z,0.93
2018-12-25T20:03:26.914Z,2.17
2018-12-25T20:07:25.406Z,1.32
2018-12-25T20:10:51.165Z,2.80
2018-12-25T20:14:33.543Z,2.22
2018-12-25T20:18:13.738Z,1.70
2018-12-25T20:22:04.415Z,0.80
2018-12-25T20:25:56.944Z,1.37
2018-12-25T20:29:38.363Z,1.72
2018-12-25T20:33:36.954Z,0.68
2018-12-25T20:37:22.031Z,0.62
2018-12-25T20:41:16.426Z,0.70
2018-12-25T20:45:13.642Z,1.52
2018-12-25T20:48:47.431Z,2.52
2018-12-25T20:52:32.679Z,1.67
2018-12-25T20:56:15.300Z,1.40
2018-12-25T21:00:05.987Z,1.65
2018-12-25T21:03:54.054Z,1.45
2018-12-25T21:07:52.962Z,0.80
2018-12-25T21:11:50.530Z,0.90
2018-12-25T21:15:55.298Z,1.20
2018-12-25T21:19:37.783Z,0.75
2018-12-25T21:23:19.170Z,1.12
2018-12-25T21:27:00.566Z,0.95
2018-12-25T21:30:10.282Z,2.80
2018-12-25T21:33:16.072Z,1.52
2018-12-25T21:36:21.924Z,2.37
2018-12-25T21:39:27.783Z,1.70
2018-12-25T21:42:33.616Z,0.62
2018-12-25T21:45:39.571Z,0.98
2018-12-25T21:48:45.479Z,0.98
2018-12-25T21:51:51.315Z,1.22
2018-12-25T21:54:57.064Z,0.95
2018-12-25T21:58:03.722Z,1.57
2018-12-25T22:01:09.438Z,1.80
2018-12-25T22:04:15.743Z,0.78
2018-12-25T22:07:21.426Z,0.90
2018-12-25T22:10:27.026Z,1.90
2018-12-25T22:13:32.748Z,1.00
2018-12-25T22:16:38.356Z,1.10
2018-12-25T22:19:44.047Z,0.85
2018-12-25T22:22:49.643Z,0.78
2018-12-25T22:25:55.487Z,0.80
2018-12-25T22:29:01.177Z,2.47
2018-12-25T22:32:06.942Z,1.20
2018-12-25T22:35:12.718Z,1.00
2018-12-25T22:38:18.370Z,0.82
2018-12-25T22:41:24.075Z,1.07
2018-12-25T22:44:29.761Z,0.62
2018-12-25T22:47:35.395Z,0.68
2018-12-25T22:50:41.102Z,1.25
2018-12-25T22:53:46.702Z,1.07
2018-12-25T22:56:52.572Z,1.17
2018-12-25T22:59:58.196Z,1.10
2018-12-25T23:03:03.899Z,0.72
2018-12-25T23:06:09.519Z,1.98
2018-12-25T23:09:15.526Z,0.57
2018-12-25T23:12:21.244Z,1.20
2018-12-25T23:15:26.921Z,0.53
2018-12-25T23:18:32.518Z,1.60
2018-12-25T23:21:38.322Z,1.17
2018-12-25T23:24:45.751Z,1.00
2018-12-25T23:27:52.451Z,0.88
2018-12-25T23:30:58.250Z,1.12
2018-12-25T23:34:03.887Z,1.67
2018-12-25T23:37:09.527Z,1.12
2018-12-25T23:40:15.279Z,0.98
2018-12-25T23:43:20.915Z,0.88
2018-12-25T23:46:26.591Z,1.40
2018-12-25T23:49:32.244Z,0.70
2018-12-25T23:52:37.997Z,0.93
2018-12-25T23:55:43.647Z,0.60
2018-12-25T23:58:49.286Z,1.00
